sensor_id;sensor_type;location;lat;lon;timestamp;P1;durP1;ratioP1;P2;durP2;ratioP2
33491;SDS011;20010;51.488;7.232;2023-11-18T00:00:55;52.97;;;26.80;;
33491;SDS011;20010;51.488;7.232;2023-11-18T00:03:21;53.10;;;27.08;;
33491;SDS011;20010;51.488;7.232;2023-11-18T00:05:48;45.80;;;25.08;;
33491;SDS011;20010;51.488;7.232;2023-11-18T00:08:15;49.58;;;25.23;;
33491;SDS011;20010;51.488;7.232;2023-11-18T00:10:41;54.38;;;25.95;;
33491;SDS011;20010;51.488;7.232;2023-11-18T00:13:09;50.90;;;25.70;;
33491;SDS011;20010;51.488;7.232;2023-11-18T00:15:35;49.28;;;26.65;;
33491;SDS011;20010;51.488;7.232;2023-11-18T00:18:02;56.47;;;28.02;;
33491;SDS011;20010;51.488;7.232;2023-11-18T00:20:29;56.50;;;27.50;;
33491;SDS011;20010;51.488;7.232;2023-11-18T00:22:57;51.60;;;25.75;;
33491;SDS011;20010;51.488;7.232;2023-11-18T00:25:24;53.42;;;26.42;;
33491;SDS011;20010;51.488;7.232;2023-11-18T00:27:52;53.33;;;25.83;;
33491;SDS011;20010;51.488;7.232;2023-11-18T00:30:18;59.95;;;27.52;;
33491;SDS011;20010;51.488;7.232;2023-11-18T00:32:45;58.03;;;26.63;;
33491;SDS011;20010;51.488;7.232;2023-11-18T00:35:12;61.78;;;27.60;;
33491;SDS011;20010;51.488;7.232;2023-11-18T00:37:38;55.20;;;26.63;;
33491;SDS011;20010;51.488;7.232;2023-11-18T00:40:06;58.20;;;26.67;;
33491;SDS011;20010;51.488;7.232;2023-11-18T00:42:34;61.80;;;26.52;;
33491;SDS011;20010;51.488;7.232;2023-11-18T00:45:01;54.20;;;26.52;;
33491;SDS011;20010;51.488;7.232;2023-11-18T00:47:28;67.72;;;31.90;;
33491;SDS011;20010;51.488;7.232;2023-11-18T00:49:55;60.92;;;27.98;;
33491;SDS011;20010;51.488;7.232;2023-11-18T00:52:21;61.20;;;27.70;;
33491;SDS011;20010;51.488;7.232;2023-11-18T00:54:48;55.67;;;26.98;;
33491;SDS011;20010;51.488;7.232;2023-11-18T00:57:14;57.72;;;26.73;;
33491;SDS011;20010;51.488;7.232;2023-11-18T00:59:42;52.50;;;24.92;;
33491;SDS011;20010;51.488;7.232;2023-11-18T01:02:09;57.90;;;27.98;;
33491;SDS011;20010;51.488;7.232;2023-11-18T01:04:36;54.42;;;25.92;;
33491;SDS011;20010;51.488;7.232;2023-11-18T01:07:03;52.47;;;26.35;;
33491;SDS011;20010;51.488;7.232;2023-11-18T01:09:30;55.50;;;27.02;;
33491;SDS011;20010;51.488;7.232;2023-11-18T01:12:02;52.05;;;24.95;;
33491;SDS011;20010;51.488;7.232;2023-11-18T01:14:34;46.20;;;24.30;;
33491;SDS011;20010;51.488;7.232;2023-11-18T01:17:04;52.97;;;25.75;;
33491;SDS011;20010;51.488;7.232;2023-11-18T01:19:35;49.33;;;23.55;;
33491;SDS011;20010;51.488;7.232;2023-11-18T01:22:01;46.83;;;23.67;;
33491;SDS011;20010;51.488;7.232;2023-11-18T01:24:32;43.28;;;23.73;;
33491;SDS011;20010;51.488;7.232;2023-11-18T01:26:59;49.95;;;25.90;;
33491;SDS011;20010;51.488;7.232;2023-11-18T01:29:26;41.15;;;21.40;;
33491;SDS011;20010;51.488;7.232;2023-11-18T01:31:53;45.60;;;24.20;;
33491;SDS011;20010;51.488;7.232;2023-11-18T01:34:22;37.83;;;22.95;;
33491;SDS011;20010;51.488;7.232;2023-11-18T01:36:49;50.40;;;23.63;;
33491;SDS011;20010;51.488;7.232;2023-11-18T01:39:16;39.92;;;21.55;;
33491;SDS011;20010;51.488;7.232;2023-11-18T01:44:15;37.13;;;20.70;;
33491;SDS011;20010;51.488;7.232;2023-11-18T01:46:41;40.15;;;21.27;;
33491;SDS011;20010;51.488;7.232;2023-11-18T01:49:12;42.03;;;22.17;;
33491;SDS011;20010;51.488;7.232;2023-11-18T01:51:45;39.88;;;21.55;;
33491;SDS011;20010;51.488;7.232;2023-11-18T01:54:12;31.48;;;19.08;;
33491;SDS011;20010;51.488;7.232;2023-11-18T01:56:46;37.50;;;21.58;;
33491;SDS011;20010;51.488;7.232;2023-11-18T01:59:14;32.47;;;20.38;;
33491;SDS011;20010;51.488;7.232;2023-11-18T02:01:48;33.92;;;20.70;;
33491;SDS011;20010;51.488;7.232;2023-11-18T02:04:16;32.17;;;19.33;;
33491;SDS011;20010;51.488;7.232;2023-11-18T02:06:47;36.50;;;20.30;;
33491;SDS011;20010;51.488;7.232;2023-11-18T02:09:15;31.92;;;20.60;;
33491;SDS011;20010;51.488;7.232;2023-11-18T02:11:51;30.95;;;19.23;;
33491;SDS011;20010;51.488;7.232;2023-11-18T02:14:20;35.42;;;19.70;;
33491;SDS011;20010;51.488;7.232;2023-11-18T02:16:51;33.05;;;18.85;;
33491;SDS011;20010;51.488;7.232;2023-11-18T02:19:23;30.45;;;20.33;;
33491;SDS011;20010;51.488;7.232;2023-11-18T02:21:51;34.58;;;19.30;;
33491;SDS011;20010;51.488;7.232;2023-11-18T02:26:57;27.67;;;17.05;;
33491;SDS011;20010;51.488;7.232;2023-11-18T02:29:29;26.25;;;17.35;;
33491;SDS011;20010;51.488;7.232;2023-11-18T02:31:59;29.23;;;19.88;;
33491;SDS011;20010;51.488;7.232;2023-11-18T02:34:34;30.40;;;18.00;;
33491;SDS011;20010;51.488;7.232;2023-11-18T02:37:05;29.85;;;19.48;;
33491;SDS011;20010;51.488;7.232;2023-11-18T02:39:36;32.38;;;19.15;;
33491;SDS011;20010;51.488;7.232;2023-11-18T02:42:07;31.17;;;20.65;;
33491;SDS011;20010;51.488;7.232;2023-11-18T02:44:37;26.48;;;17.73;;
33491;SDS011;20010;51.488;7.232;2023-11-18T02:47:04;28.83;;;18.65;;
33491;SDS011;20010;51.488;7.232;2023-11-18T02:49:32;32.78;;;19.73;;
33491;SDS011;20010;51.488;7.232;2023-11-18T02:52:01;28.80;;;18.50;;
33491;SDS011;20010;51.488;7.232;2023-11-18T02:54:27;26.45;;;17.90;;
33491;SDS011;20010;51.488;7.232;2023-11-18T02:56:54;32.33;;;19.63;;
33491;SDS011;20010;51.488;7.232;2023-11-18T02:59:21;32.10;;;18.50;;
33491;SDS011;20010;51.488;7.232;2023-11-18T03:01:48;29.30;;;17.30;;
33491;SDS011;20010;51.488;7.232;2023-11-18T03:04:14;29.70;;;19.25;;
33491;SDS011;20010;51.488;7.232;2023-11-18T03:06:42;28.40;;;18.85;;
33491;SDS011;20010;51.488;7.232;2023-11-18T03:09:08;27.70;;;18.40;;
33491;SDS011;20010;51.488;7.232;2023-11-18T03:11:36;23.90;;;16.42;;
33491;SDS011;20010;51.488;7.232;2023-11-18T03:14:03;27.05;;;17.40;;
33491;SDS011;20010;51.488;7.232;2023-11-18T03:16:31;31.27;;;18.45;;
33491;SDS011;20010;51.488;7.232;2023-11-18T03:18:58;27.83;;;17.02;;
33491;SDS011;20010;51.488;7.232;2023-11-18T03:21:25;26.92;;;17.85;;
33491;SDS011;20010;51.488;7.232;2023-11-18T03:23:53;32.30;;;19.67;;
33491;SDS011;20010;51.488;7.232;2023-11-18T03:26:19;25.52;;;17.83;;
33491;SDS011;20010;51.488;7.232;2023-11-18T03:28:48;25.05;;;18.48;;
33491;SDS011;20010;51.488;7.232;2023-11-18T03:31:16;25.83;;;16.83;;
33491;SDS011;20010;51.488;7.232;2023-11-18T03:33:43;28.15;;;18.13;;
33491;SDS011;20010;51.488;7.232;2023-11-18T03:36:09;27.08;;;16.75;;
33491;SDS011;20010;51.488;7.232;2023-11-18T03:38:38;24.95;;;17.77;;
33491;SDS011;20010;51.488;7.232;2023-11-18T03:41:04;23.48;;;16.75;;
33491;SDS011;20010;51.488;7.232;2023-11-18T03:43:31;27.73;;;18.27;;
33491;SDS011;20010;51.488;7.232;2023-11-18T03:45:58;23.48;;;15.82;;
33491;SDS011;20010;51.488;7.232;2023-11-18T03:48:24;22.90;;;17.27;;
33491;SDS011;20010;51.488;7.232;2023-11-18T03:50:51;24.83;;;16.67;;
33491;SDS011;20010;51.488;7.232;2023-11-18T03:53:19;24.15;;;16.60;;
33491;SDS011;20010;51.488;7.232;2023-11-18T03:55:45;22.65;;;16.60;;
33491;SDS011;20010;51.488;7.232;2023-11-18T03:58:12;28.02;;;18.27;;
33491;SDS011;20010;51.488;7.232;2023-11-18T04:00:38;25.67;;;17.52;;
33491;SDS011;20010;51.488;7.232;2023-11-18T04:03:05;21.55;;;15.02;;
33491;SDS011;20010;51.488;7.232;2023-11-18T04:05:33;25.10;;;17.05;;
33491;SDS011;20010;51.488;7.232;2023-11-18T04:08:01;24.02;;;17.23;;
33491;SDS011;20010;51.488;7.232;2023-11-18T04:10:27;28.70;;;17.60;;
33491;SDS011;20010;51.488;7.232;2023-11-18T04:12:54;28.15;;;18.77;;
33491;SDS011;20010;51.488;7.232;2023-11-18T04:15:21;26.33;;;17.95;;
33491;SDS011;20010;51.488;7.232;2023-11-18T04:17:47;23.05;;;17.35;;
33491;SDS011;20010;51.488;7.232;2023-11-18T04:20:14;26.65;;;18.15;;
33491;SDS011;20010;51.488;7.232;2023-11-18T04:22:42;28.65;;;19.15;;
33491;SDS011;20010;51.488;7.232;2023-11-18T04:25:10;26.50;;;17.92;;
33491;SDS011;20010;51.488;7.232;2023-11-18T04:27:37;23.15;;;16.58;;
33491;SDS011;20010;51.488;7.232;2023-11-18T04:30:04;28.15;;;18.40;;
33491;SDS011;20010;51.488;7.232;2023-11-18T04:32:31;25.58;;;17.92;;
33491;SDS011;20010;51.488;7.232;2023-11-18T04:35:00;26.00;;;18.23;;
33491;SDS011;20010;51.488;7.232;2023-11-18T04:37:33;26.23;;;17.63;;
33491;SDS011;20010;51.488;7.232;2023-11-18T04:40:01;28.23;;;17.83;;
33491;SDS011;20010;51.488;7.232;2023-11-18T04:42:28;25.48;;;17.75;;
33491;SDS011;20010;51.488;7.232;2023-11-18T04:44:57;24.15;;;17.92;;
33491;SDS011;20010;51.488;7.232;2023-11-18T04:47:24;25.80;;;17.98;;
33491;SDS011;20010;51.488;7.232;2023-11-18T04:49:53;27.48;;;18.10;;
33491;SDS011;20010;51.488;7.232;2023-11-18T04:52:20;24.17;;;16.48;;
33491;SDS011;20010;51.488;7.232;2023-11-18T04:54:47;26.33;;;17.67;;
33491;SDS011;20010;51.488;7.232;2023-11-18T04:57:14;26.23;;;18.13;;
33491;SDS011;20010;51.488;7.232;2023-11-18T04:59:41;27.13;;;18.50;;
33491;SDS011;20010;51.488;7.232;2023-11-18T05:02:09;26.55;;;17.63;;
33491;SDS011;20010;51.488;7.232;2023-11-18T05:04:36;27.85;;;19.20;;
33491;SDS011;20010;51.488;7.232;2023-11-18T05:07:03;27.70;;;17.95;;
33491;SDS011;20010;51.488;7.232;2023-11-18T05:09:30;23.65;;;17.80;;
33491;SDS011;20010;51.488;7.232;2023-11-18T05:11:57;22.95;;;16.45;;
33491;SDS011;20010;51.488;7.232;2023-11-18T05:14:25;25.35;;;17.00;;
33491;SDS011;20010;51.488;7.232;2023-11-18T05:16:52;27.60;;;18.85;;
33491;SDS011;20010;51.488;7.232;2023-11-18T05:19:20;23.67;;;17.25;;
33491;SDS011;20010;51.488;7.232;2023-11-18T05:21:46;25.48;;;18.45;;
33491;SDS011;20010;51.488;7.232;2023-11-18T05:24:16;27.55;;;18.55;;
33491;SDS011;20010;51.488;7.232;2023-11-18T05:26:43;27.58;;;17.45;;
33491;SDS011;20010;51.488;7.232;2023-11-18T05:29:10;26.10;;;18.25;;
33491;SDS011;20010;51.488;7.232;2023-11-18T05:31:37;25.02;;;18.17;;
33491;SDS011;20010;51.488;7.232;2023-11-18T05:34:04;23.48;;;16.50;;
33491;SDS011;20010;51.488;7.232;2023-11-18T05:36:31;24.75;;;17.92;;
33491;SDS011;20010;51.488;7.232;2023-11-18T05:39:03;23.65;;;17.65;;
33491;SDS011;20010;51.488;7.232;2023-11-18T05:41:35;28.90;;;18.15;;
33491;SDS011;20010;51.488;7.232;2023-11-18T05:44:06;28.38;;;18.95;;
33491;SDS011;20010;51.488;7.232;2023-11-18T05:46:35;26.85;;;18.35;;
33491;SDS011;20010;51.488;7.232;2023-11-18T05:49:03;26.80;;;17.42;;
33491;SDS011;20010;51.488;7.232;2023-11-18T05:51:34;29.75;;;19.33;;
33491;SDS011;20010;51.488;7.232;2023-11-18T05:54:01;26.80;;;19.20;;
33491;SDS011;20010;51.488;7.232;2023-11-18T05:56:28;35.08;;;21.17;;
33491;SDS011;20010;51.488;7.232;2023-11-18T05:58:55;33.35;;;21.90;;
33491;SDS011;20010;51.488;7.232;2023-11-18T06:01:21;32.67;;;21.58;;
33491;SDS011;20010;51.488;7.232;2023-11-18T06:03:49;34.28;;;23.02;;
33491;SDS011;20010;51.488;7.232;2023-11-18T06:06:16;28.50;;;18.23;;
33491;SDS011;20010;51.488;7.232;2023-11-18T06:08:49;28.55;;;19.27;;
33491;SDS011;20010;51.488;7.232;2023-11-18T06:11:16;28.50;;;18.13;;
33491;SDS011;20010;51.488;7.232;2023-11-18T06:13:50;31.38;;;21.10;;
33491;SDS011;20010;51.488;7.232;2023-11-18T06:16:19;25.98;;;18.30;;
33491;SDS011;20010;51.488;7.232;2023-11-18T06:18:48;26.15;;;18.90;;
33491;SDS011;20010;51.488;7.232;2023-11-18T06:21:16;29.20;;;19.40;;
33491;SDS011;20010;51.488;7.232;2023-11-18T06:23:45;25.58;;;17.73;;
33491;SDS011;20010;51.488;7.232;2023-11-18T06:26:14;26.27;;;18.92;;
33491;SDS011;20010;51.488;7.232;2023-11-18T06:28:42;26.52;;;20.50;;
33491;SDS011;20010;51.488;7.232;2023-11-18T06:31:10;31.08;;;20.60;;
33491;SDS011;20010;51.488;7.232;2023-11-18T06:38:45;26.50;;;19.00;;
33491;SDS011;20010;51.488;7.232;2023-11-18T06:41:12;26.58;;;18.05;;
33491;SDS011;20010;51.488;7.232;2023-11-18T06:43:40;29.15;;;20.00;;
33491;SDS011;20010;51.488;7.232;2023-11-18T06:46:24;27.80;;;18.15;;
33491;SDS011;20010;51.488;7.232;2023-11-18T06:48:52;31.67;;;19.35;;
33491;SDS011;20010;51.488;7.232;2023-11-18T06:51:20;25.38;;;18.27;;
33491;SDS011;20010;51.488;7.232;2023-11-18T06:53:51;25.98;;;18.38;;
33491;SDS011;20010;51.488;7.232;2023-11-18T06:56:18;29.02;;;19.70;;
33491;SDS011;20010;51.488;7.232;2023-11-18T06:58:44;27.83;;;19.02;;
33491;SDS011;20010;51.488;7.232;2023-11-18T07:01:14;25.88;;;18.25;;
33491;SDS011;20010;51.488;7.232;2023-11-18T07:03:42;28.63;;;18.95;;
33491;SDS011;20010;51.488;7.232;2023-11-18T07:06:09;29.20;;;18.27;;
33491;SDS011;20010;51.488;7.232;2023-11-18T07:08:36;29.02;;;18.83;;
33491;SDS011;20010;51.488;7.232;2023-11-18T07:11:03;33.60;;;21.70;;
33491;SDS011;20010;51.488;7.232;2023-11-18T07:13:30;31.52;;;21.17;;
33491;SDS011;20010;51.488;7.232;2023-11-18T07:15:57;23.85;;;18.13;;
33491;SDS011;20010;51.488;7.232;2023-11-18T07:18:24;27.25;;;19.00;;
33491;SDS011;20010;51.488;7.232;2023-11-18T07:20:50;28.65;;;18.83;;
33491;SDS011;20010;51.488;7.232;2023-11-18T07:23:20;29.20;;;19.52;;
33491;SDS011;20010;51.488;7.232;2023-11-18T07:25:47;28.48;;;19.48;;
33491;SDS011;20010;51.488;7.232;2023-11-18T07:28:13;28.67;;;18.73;;
33491;SDS011;20010;51.488;7.232;2023-11-18T07:30:43;27.88;;;18.85;;
33491;SDS011;20010;51.488;7.232;2023-11-18T07:33:17;26.20;;;18.02;;
33491;SDS011;20010;51.488;7.232;2023-11-18T07:35:45;26.17;;;17.83;;
33491;SDS011;20010;51.488;7.232;2023-11-18T07:38:15;23.52;;;17.48;;
33491;SDS011;20010;51.488;7.232;2023-11-18T07:40:42;23.30;;;16.48;;
33491;SDS011;20010;51.488;7.232;2023-11-18T07:43:12;23.42;;;16.50;;
33491;SDS011;20010;51.488;7.232;2023-11-18T07:45:39;23.67;;;17.27;;
33491;SDS011;20010;51.488;7.232;2023-11-18T07:48:06;27.63;;;17.83;;
33491;SDS011;20010;51.488;7.232;2023-11-18T07:50:39;22.95;;;16.55;;
33491;SDS011;20010;51.488;7.232;2023-11-18T07:53:11;23.73;;;17.40;;
33491;SDS011;20010;51.488;7.232;2023-11-18T07:55:37;22.98;;;16.58;;
33491;SDS011;20010;51.488;7.232;2023-11-18T07:58:07;27.13;;;17.67;;
33491;SDS011;20010;51.488;7.232;2023-11-18T08:03:07;22.10;;;16.25;;
33491;SDS011;20010;51.488;7.232;2023-11-18T08:05:41;27.40;;;15.48;;
33491;SDS011;20010;51.488;7.232;2023-11-18T08:08:12;27.60;;;15.85;;
33491;SDS011;20010;51.488;7.232;2023-11-18T08:10:40;21.98;;;15.10;;
33491;SDS011;20010;51.488;7.232;2023-11-18T08:13:08;24.33;;;14.93;;
33491;SDS011;20010;51.488;7.232;2023-11-18T08:15:43;21.52;;;15.10;;
33491;SDS011;20010;51.488;7.232;2023-11-18T08:18:13;19.35;;;14.23;;
33491;SDS011;20010;51.488;7.232;2023-11-18T08:20:39;25.05;;;15.85;;
33491;SDS011;20010;51.488;7.232;2023-11-18T08:23:06;18.25;;;14.20;;
33491;SDS011;20010;51.488;7.232;2023-11-18T08:25:33;27.48;;;15.90;;
33491;SDS011;20010;51.488;7.232;2023-11-18T08:28:02;18.98;;;14.30;;
33491;SDS011;20010;51.488;7.232;2023-11-18T08:30:33;20.52;;;14.82;;
33491;SDS011;20010;51.488;7.232;2023-11-18T08:33:01;20.52;;;14.60;;
33491;SDS011;20010;51.488;7.232;2023-11-18T08:37:58;18.02;;;13.82;;
33491;SDS011;20010;51.488;7.232;2023-11-18T08:40:25;18.63;;;13.48;;
33491;SDS011;20010;51.488;7.232;2023-11-18T08:42:54;20.48;;;12.95;;
33491;SDS011;20010;51.488;7.232;2023-11-18T08:45:23;16.85;;;12.98;;
33491;SDS011;20010;51.488;7.232;2023-11-18T08:47:54;18.25;;;13.82;;
33491;SDS011;20010;51.488;7.232;2023-11-18T08:50:24;18.88;;;14.30;;
33491;SDS011;20010;51.488;7.232;2023-11-18T08:52:51;21.23;;;13.30;;
33491;SDS011;20010;51.488;7.232;2023-11-18T08:55:26;19.13;;;13.48;;
33491;SDS011;20010;51.488;7.232;2023-11-18T08:58:09;16.98;;;13.55;;
33491;SDS011;20010;51.488;7.232;2023-11-18T09:00:47;17.48;;;14.15;;
33491;SDS011;20010;51.488;7.232;2023-11-18T09:03:15;15.27;;;12.98;;
33491;SDS011;20010;51.488;7.232;2023-11-18T09:05:53;20.30;;;14.30;;
33491;SDS011;20010;51.488;7.232;2023-11-18T09:08:30;16.23;;;13.05;;
33491;SDS011;20010;51.488;7.232;2023-11-18T09:13:33;18.38;;;12.73;;
33491;SDS011;20010;51.488;7.232;2023-11-18T09:16:02;18.00;;;13.07;;
33491;SDS011;20010;51.488;7.232;2023-11-18T09:18:37;16.20;;;13.50;;
33491;SDS011;20010;51.488;7.232;2023-11-18T09:21:09;20.15;;;12.88;;
33491;SDS011;20010;51.488;7.232;2023-11-18T09:23:42;19.35;;;15.10;;
33491;SDS011;20010;51.488;7.232;2023-11-18T09:26:10;19.73;;;15.25;;
33491;SDS011;20010;51.488;7.232;2023-11-18T09:28:37;21.63;;;13.90;;
33491;SDS011;20010;51.488;7.232;2023-11-18T09:31:04;24.85;;;12.85;;
33491;SDS011;20010;51.488;7.232;2023-11-18T09:33:32;15.63;;;11.13;;
33491;SDS011;20010;51.488;7.232;2023-11-18T09:36:00;13.98;;;11.60;;
33491;SDS011;20010;51.488;7.232;2023-11-18T09:38:34;15.48;;;10.75;;
33491;SDS011;20010;51.488;7.232;2023-11-18T09:41:05;17.48;;;11.82;;
33491;SDS011;20010;51.488;7.232;2023-11-18T09:43:38;18.98;;;13.13;;
33491;SDS011;20010;51.488;7.232;2023-11-18T09:46:19;14.10;;;11.95;;
33491;SDS011;20010;51.488;7.232;2023-11-18T09:48:51;16.30;;;11.38;;
33491;SDS011;20010;51.488;7.232;2023-11-18T09:51:20;13.20;;;11.80;;
33491;SDS011;20010;51.488;7.232;2023-11-18T09:53:59;14.00;;;10.60;;
33491;SDS011;20010;51.488;7.232;2023-11-18T09:56:49;14.07;;;11.75;;
33491;SDS011;20010;51.488;7.232;2023-11-18T09:59:25;13.95;;;11.05;;
33491;SDS011;20010;51.488;7.232;2023-11-18T10:02:02;16.35;;;11.90;;
33491;SDS011;20010;51.488;7.232;2023-11-18T10:04:33;16.63;;;12.82;;
33491;SDS011;20010;51.488;7.232;2023-11-18T10:07:01;18.05;;;12.43;;
33491;SDS011;20010;51.488;7.232;2023-11-18T10:09:29;15.82;;;12.02;;
33491;SDS011;20010;51.488;7.232;2023-11-18T10:12:03;16.17;;;12.02;;
33491;SDS011;20010;51.488;7.232;2023-11-18T10:14:36;14.13;;;10.80;;
33491;SDS011;20010;51.488;7.232;2023-11-18T10:17:06;15.65;;;10.65;;
33491;SDS011;20010;51.488;7.232;2023-11-18T10:19:49;16.95;;;11.60;;
33491;SDS011;20010;51.488;7.232;2023-11-18T10:22:39;14.80;;;10.75;;
33491;SDS011;20010;51.488;7.232;2023-11-18T10:25:07;14.32;;;10.90;;
33491;SDS011;20010;51.488;7.232;2023-11-18T10:27:33;16.38;;;10.93;;
33491;SDS011;20010;51.488;7.232;2023-11-18T10:30:04;15.88;;;10.52;;
33491;SDS011;20010;51.488;7.232;2023-11-18T10:32:32;11.82;;;9.65;;
33491;SDS011;20010;51.488;7.232;2023-11-18T10:35:05;13.20;;;10.45;;
33491;SDS011;20010;51.488;7.232;2023-11-18T10:37:33;15.25;;;10.07;;
33491;SDS011;20010;51.488;7.232;2023-11-18T10:40:03;12.75;;;9.77;;
33491;SDS011;20010;51.488;7.232;2023-11-18T10:42:31;12.70;;;9.48;;
33491;SDS011;20010;51.488;7.232;2023-11-18T10:44:59;12.75;;;10.18;;
33491;SDS011;20010;51.488;7.232;2023-11-18T10:47:33;15.82;;;11.27;;
33491;SDS011;20010;51.488;7.232;2023-11-18T10:50:02;11.90;;;10.70;;
33491;SDS011;20010;51.488;7.232;2023-11-18T10:52:29;13.52;;;10.18;;
33491;SDS011;20010;51.488;7.232;2023-11-18T10:55:03;12.38;;;10.02;;
33491;SDS011;20010;51.488;7.232;2023-11-18T10:57:39;13.57;;;10.55;;
33491;SDS011;20010;51.488;7.232;2023-11-18T11:00:09;12.35;;;9.55;;
33491;SDS011;20010;51.488;7.232;2023-11-18T11:02:40;12.45;;;9.60;;
33491;SDS011;20010;51.488;7.232;2023-11-18T11:05:08;11.93;;;10.70;;
33491;SDS011;20010;51.488;7.232;2023-11-18T11:07:47;11.73;;;10.02;;
33491;SDS011;20010;51.488;7.232;2023-11-18T11:10:15;11.80;;;10.63;;
33491;SDS011;20010;51.488;7.232;2023-11-18T11:12:50;12.50;;;10.48;;
33491;SDS011;20010;51.488;7.232;2023-11-18T11:15:22;12.93;;;8.98;;
33491;SDS011;20010;51.488;7.232;2023-11-18T11:17:51;9.98;;;8.13;;
33491;SDS011;20010;51.488;7.232;2023-11-18T11:22:56;9.63;;;8.73;;
33491;SDS011;20010;51.488;7.232;2023-11-18T11:29:01;11.20;;;8.70;;
33491;SDS011;20010;51.488;7.232;2023-11-18T11:31:41;11.98;;;8.85;;
33491;SDS011;20010;51.488;7.232;2023-11-18T11:36:50;13.57;;;9.77;;
33491;SDS011;20010;51.488;7.232;2023-11-18T11:39:19;13.05;;;9.68;;
33491;SDS011;20010;51.488;7.232;2023-11-18T11:41:52;12.85;;;9.98;;
33491;SDS011;20010;51.488;7.232;2023-11-18T11:44:23;13.00;;;8.95;;
33491;SDS011;20010;51.488;7.232;2023-11-18T11:46:59;9.98;;;8.98;;
33491;SDS011;20010;51.488;7.232;2023-11-18T11:49:31;12.32;;;8.90;;
33491;SDS011;20010;51.488;7.232;2023-11-18T11:52:04;10.73;;;9.15;;
33491;SDS011;20010;51.488;7.232;2023-11-18T11:54:43;10.75;;;8.57;;
33491;SDS011;20010;51.488;7.232;2023-11-18T11:57:11;10.05;;;9.05;;
33491;SDS011;20010;51.488;7.232;2023-11-18T12:02:11;12.48;;;10.20;;
33491;SDS011;20010;51.488;7.232;2023-11-18T12:04:46;13.30;;;10.60;;
33491;SDS011;20010;51.488;7.232;2023-11-18T12:07:19;15.82;;;9.88;;
33491;SDS011;20010;51.488;7.232;2023-11-18T12:09:50;13.63;;;10.48;;
33491;SDS011;20010;51.488;7.232;2023-11-18T12:12:20;14.43;;;9.70;;
33491;SDS011;20010;51.488;7.232;2023-11-18T12:14:57;12.98;;;10.77;;
33491;SDS011;20010;51.488;7.232;2023-11-18T12:23:20;10.77;;;9.65;;
33491;SDS011;20010;51.488;7.232;2023-11-18T12:25:51;15.20;;;10.27;;
33491;SDS011;20010;51.488;7.232;2023-11-18T12:28:24;11.00;;;9.68;;
33491;SDS011;20010;51.488;7.232;2023-11-18T12:30:53;16.58;;;10.40;;
33491;SDS011;20010;51.488;7.232;2023-11-18T12:42:04;10.32;;;9.15;;
33491;SDS011;20010;51.488;7.232;2023-11-18T12:44:45;12.07;;;9.47;;
33491;SDS011;20010;51.488;7.232;2023-11-18T12:47:18;11.37;;;10.17;;
33491;SDS011;20010;51.488;7.232;2023-11-18T12:49:48;13.80;;;9.95;;
33491;SDS011;20010;51.488;7.232;2023-11-18T12:52:21;10.55;;;9.45;;
33491;SDS011;20010;51.488;7.232;2023-11-18T12:54:49;16.58;;;11.10;;
33491;SDS011;20010;51.488;7.232;2023-11-18T12:57:27;17.80;;;13.60;;
33491;SDS011;20010;51.488;7.232;2023-11-18T12:59:58;13.82;;;10.55;;
33491;SDS011;20010;51.488;7.232;2023-11-18T13:02:27;12.52;;;9.85;;
33491;SDS011;20010;51.488;7.232;2023-11-18T13:05:04;12.90;;;10.27;;
33491;SDS011;20010;51.488;7.232;2023-11-18T13:07:36;11.85;;;9.18;;
33491;SDS011;20010;51.488;7.232;2023-11-18T13:10:03;11.30;;;10.23;;
33491;SDS011;20010;51.488;7.232;2023-11-18T13:12:31;10.18;;;9.07;;
33491;SDS011;20010;51.488;7.232;2023-11-18T13:14:57;14.75;;;10.82;;
33491;SDS011;20010;51.488;7.232;2023-11-18T13:17:24;12.52;;;10.90;;
33491;SDS011;20010;51.488;7.232;2023-11-18T13:19:54;14.43;;;9.73;;
33491;SDS011;20010;51.488;7.232;2023-11-18T13:22:21;16.92;;;13.13;;
33491;SDS011;20010;51.488;7.232;2023-11-18T13:25:00;12.30;;;10.85;;
33491;SDS011;20010;51.488;7.232;2023-11-18T13:27:27;16.10;;;10.32;;
33491;SDS011;20010;51.488;7.232;2023-11-18T13:29:54;11.43;;;9.38;;
33491;SDS011;20010;51.488;7.232;2023-11-18T13:32:21;11.75;;;8.20;;
33491;SDS011;20010;51.488;7.232;2023-11-18T13:34:53;9.82;;;8.07;;
33491;SDS011;20010;51.488;7.232;2023-11-18T13:37:20;16.35;;;12.02;;
33491;SDS011;20010;51.488;7.232;2023-11-18T13:39:53;12.80;;;10.57;;
33491;SDS011;20010;51.488;7.232;2023-11-18T13:42:23;10.80;;;8.98;;
33491;SDS011;20010;51.488;7.232;2023-11-18T13:44:52;8.95;;;7.90;;
33491;SDS011;20010;51.488;7.232;2023-11-18T13:47:20;10.32;;;7.32;;
33491;SDS011;20010;51.488;7.232;2023-11-18T13:49:49;10.02;;;8.90;;
33491;SDS011;20010;51.488;7.232;2023-11-18T13:52:17;8.82;;;6.68;;
33491;SDS011;20010;51.488;7.232;2023-11-18T13:54:45;12.80;;;9.70;;
33491;SDS011;20010;51.488;7.232;2023-11-18T13:57:13;8.70;;;7.75;;
33491;SDS011;20010;51.488;7.232;2023-11-18T13:59:40;14.43;;;8.63;;
33491;SDS011;20010;51.488;7.232;2023-11-18T14:02:11;10.00;;;7.30;;
33491;SDS011;20010;51.488;7.232;2023-11-18T14:04:39;8.95;;;7.60;;
33491;SDS011;20010;51.488;7.232;2023-11-18T14:07:05;9.07;;;7.20;;
33491;SDS011;20010;51.488;7.232;2023-11-18T14:09:32;9.63;;;8.65;;
33491;SDS011;20010;51.488;7.232;2023-11-18T14:12:02;7.43;;;6.72;;
33491;SDS011;20010;51.488;7.232;2023-11-18T14:14:32;8.93;;;6.85;;
33491;SDS011;20010;51.488;7.232;2023-11-18T14:17:00;7.43;;;6.50;;
33491;SDS011;20010;51.488;7.232;2023-11-18T14:19:27;7.63;;;6.82;;
33491;SDS011;20010;51.488;7.232;2023-11-18T14:21:55;8.70;;;7.25;;
33491;SDS011;20010;51.488;7.232;2023-11-18T14:24:22;7.35;;;6.53;;
33491;SDS011;20010;51.488;7.232;2023-11-18T14:26:58;8.20;;;7.38;;
33491;SDS011;20010;51.488;7.232;2023-11-18T14:29:24;8.13;;;7.10;;
33491;SDS011;20010;51.488;7.232;2023-11-18T14:31:55;8.63;;;7.35;;
33491;SDS011;20010;51.488;7.232;2023-11-18T14:34:21;8.18;;;6.68;;
33491;SDS011;20010;51.488;7.232;2023-11-18T14:36:48;10.48;;;6.80;;
33491;SDS011;20010;51.488;7.232;2023-11-18T14:39:15;9.70;;;6.95;;
33491;SDS011;20010;51.488;7.232;2023-11-18T14:41:48;8.20;;;6.47;;
33491;SDS011;20010;51.488;7.232;2023-11-18T14:44:16;7.65;;;6.38;;
33491;SDS011;20010;51.488;7.232;2023-11-18T14:46:44;9.02;;;7.03;;
33491;SDS011;20010;51.488;7.232;2023-11-18T14:49:12;8.15;;;5.85;;
33491;SDS011;20010;51.488;7.232;2023-11-18T14:51:39;5.93;;;5.32;;
33491;SDS011;20010;51.488;7.232;2023-11-18T14:54:06;6.30;;;5.70;;
33491;SDS011;20010;51.488;7.232;2023-11-18T14:56:33;6.82;;;6.22;;
33491;SDS011;20010;51.488;7.232;2023-11-18T14:59:01;7.43;;;6.20;;
33491;SDS011;20010;51.488;7.232;2023-11-18T15:01:28;7.72;;;6.30;;
33491;SDS011;20010;51.488;7.232;2023-11-18T15:03:55;8.57;;;7.20;;
33491;SDS011;20010;51.488;7.232;2023-11-18T15:06:26;7.82;;;6.43;;
33491;SDS011;20010;51.488;7.232;2023-11-18T15:08:53;7.85;;;5.53;;
33491;SDS011;20010;51.488;7.232;2023-11-18T15:11:21;7.25;;;6.13;;
33491;SDS011;20010;51.488;7.232;2023-11-18T15:13:48;7.65;;;6.40;;
33491;SDS011;20010;51.488;7.232;2023-11-18T15:16:16;11.85;;;6.18;;
33491;SDS011;20010;51.488;7.232;2023-11-18T15:18:45;14.65;;;6.75;;
33491;SDS011;20010;51.488;7.232;2023-11-18T15:21:18;8.50;;;5.78;;